Time;durP1;ratioP1;P1;durP2;ratioP2;P2;SDS_P1;SDS_P2;PMS_P1;PMS_P2;Temp;Humidity;BMP_temperature;BMP_pressure;BME280_temperature;BME280_humidity;BME280_pressure;Samples;Min_cycle;Max_cycle;Signal;HPM_P1;HPM_P2
2023/05/16 00:00:47;;;;;;;3.92;2.47;;;23.00;85.00;;;;;;6282035;27;89309;-71
2023/05/16 00:03:49;;;;;;;2.40;2.10;;;23.00;85.00;;;;;;6282325;27;89129;-70
2023/05/16 00:06:53;;;;;;;2.55;1.70;;;23.00;85.00;;;;;;6257142;27;89419;-70
2023/05/16 00:09:55;;;;;;;2.38;1.95;;;23.00;85.00;;;;;;6258865;27;88960;-71
2023/05/16 00:13:00;;;;;;;2.72;2.10;;;23.00;85.00;;;;;;6278414;27;89121;-70
2023/05/16 00:16:03;;;;;;;2.00;1.80;;;23.00;85.00;;;;;;6286838;27;89092;-70
2023/05/16 00:19:06;;;;;;;2.97;2.20;;;23.00;85.00;;;;;;6256843;27;88554;-71
2023/05/16 00:22:10;;;;;;;2.35;2.00;;;23.00;85.00;;;;;;6277371;27;89133;-70
2023/05/16 00:25:12;;;;;;;2.28;1.80;;;23.00;85.00;;;;;;6282839;27;89137;-70
2023/05/16 00:28:14;;;;;;;2.22;2.03;;;23.00;85.00;;;;;;6268840;27;90045;-70
2023/05/16 00:31:16;;;;;;;2.30;2.00;;;23.00;85.00;;;;;;6286952;27;89080;-70
2023/05/16 00:34:20;;;;;;;2.78;2.03;;;23.00;85.00;;;;;;6281915;27;89434;-71
2023/05/16 00:37:23;;;;;;;2.22;2.00;;;23.00;85.00;;;;;;6267462;27;89383;-70
2023/05/16 00:40:25;;;;;;;2.30;1.90;;;22.90;84.90;;;;;;6257607;27;89195;-70
2023/05/16 00:43:27;;;;;;;2.20;2.00;;;23.00;84.90;;;;;;6266187;27;89042;-71
2023/05/16 00:46:29;;;;;;;1.92;1.80;;;23.00;84.90;;;;;;6257152;27;89430;-70
2023/05/16 00:49:31;;;;;;;2.33;2.13;;;23.00;84.90;;;;;;6271158;27;88435;-71
2023/05/16 00:52:35;;;;;;;2.28;2.08;;;23.00;84.90;;;;;;6279121;27;88985;-70
2023/05/16 00:55:38;;;;;;;3.08;2.17;;;22.90;84.90;;;;;;6275190;27;89211;-71
2023/05/16 00:58:40;;;;;;;2.88;2.22;;;23.00;85.00;;;;;;6270769;27;89893;-71
2023/05/16 01:01:45;;;;;;;2.25;1.70;;;22.90;84.90;;;;;;6273228;27;89077;-70
2023/05/16 01:04:48;;;;;;;1.98;1.80;;;22.90;84.90;;;;;;6266965;27;89388;-70
2023/05/16 01:07:51;;;;;;;2.08;1.88;;;22.90;84.90;;;;;;6270098;27;89133;-70
2023/05/16 01:11:02;;;;;;;1.60;1.50;;;22.90;84.90;;;;;;6268934;27;89112;-70
2023/05/16 01:14:13;;;;;;;1.95;1.80;;;22.90;84.90;;;;;;6280294;27;88012;-71
2023/05/16 01:17:23;;;;;;;2.10;1.80;;;22.90;84.80;;;;;;6270139;27;87978;-69
2023/05/16 01:20:47;;;;;;;2.63;2.13;;;22.90;84.80;;;;;;6284874;27;88387;-70
2023/05/16 01:24:00;;;;;;;2.00;1.80;;;22.90;84.80;;;;;;6291149;27;89078;-70
2023/05/16 01:27:06;;;;;;;2.10;1.90;;;22.90;84.80;;;;;;6281133;27;89050;-70
2023/05/16 01:30:15;;;;;;;2.35;1.75;;;22.90;84.80;;;;;;6274674;27;90231;-69
2023/05/16 01:33:17;;;;;;;2.67;2.00;;;22.90;84.80;;;;;;6271810;27;89119;-70
2023/05/16 01:36:25;;;;;;;2.35;2.15;;;22.90;84.80;;;;;;6283749;27;89193;-70
2023/05/16 01:39:33;;;;;;;1.98;1.77;;;22.90;84.90;;;;;;6275023;27;89255;-70
2023/05/16 01:42:43;;;;;;;2.10;1.90;;;22.80;84.80;;;;;;6279230;27;89069;-70
2023/05/16 01:45:51;;;;;;;2.10;1.90;;;22.90;84.90;;;;;;6262177;27;88265;-70
2023/05/16 01:48:57;;;;;;;2.10;1.90;;;22.90;84.80;;;;;;6277334;27;89355;-70
2023/05/16 01:52:04;;;;;;;3.10;2.08;;;22.80;84.70;;;;;;6294813;27;88063;-70
2023/05/16 01:55:14;;;;;;;2.97;2.20;;;22.90;85.70;;;;;;6278873;27;89034;-70
2023/05/16 01:58:22;;;;;;;2.88;2.28;;;22.90;84.80;;;;;;6277227;27;89141;-71
2023/05/16 02:01:24;;;;;;;2.00;1.90;;;22.80;84.70;;;;;;6274723;27;90024;-70
2023/05/16 02:04:26;;;;;;;3.38;1.77;;;22.80;84.70;;;;;;6269576;27;89057;-70
2023/05/16 02:07:28;;;;;;;2.42;2.08;;;22.90;84.80;;;;;;6254383;27;89024;-71
2023/05/16 02:10:30;;;;;;;3.83;2.50;;;22.90;84.80;;;;;;6257910;27;89020;-71
2023/05/16 02:13:34;;;;;;;2.50;2.13;;;22.80;84.70;;;;;;6284571;27;88996;-70
2023/05/16 02:16:36;;;;;;;2.28;2.08;;;22.90;84.90;;;;;;6282277;27;89726;-70
2023/05/16 02:19:38;;;;;;;2.30;2.08;;;22.80;84.70;;;;;;6264173;27;89083;-71
2023/05/16 02:22:41;;;;;;;2.63;2.25;;;22.80;84.80;;;;;;6274833;27;87210;-70
2023/05/16 02:25:43;;;;;;;2.45;2.25;;;22.80;84.70;;;;;;6264290;27;87811;-70
2023/05/16 02:28:48;;;;;;;2.58;2.30;;;22.80;84.70;;;;;;6278360;27;89061;-70
2023/05/16 02:31:50;;;;;;;2.80;2.50;;;22.80;84.70;;;;;;6295056;27;89952;-71
2023/05/16 02:34:52;;;;;;;2.47;2.28;;;22.80;84.70;;;;;;6270574;27;89356;-70
2023/05/16 02:37:54;;;;;;;3.03;2.70;;;22.80;84.70;;;;;;6286846;27;89031;-70
2023/05/16 02:40:56;;;;;;;2.70;2.50;;;22.80;84.70;;;;;;6300534;27;89853;-70
2023/05/16 02:43:59;;;;;;;2.83;2.60;;;22.80;84.70;;;;;;6290251;27;89069;-71
2023/05/16 02:47:02;;;;;;;2.75;2.55;;;22.80;84.70;;;;;;6291649;27;89037;-70
2023/05/16 02:50:05;;;;;;;3.22;2.92;;;22.80;84.70;;;;;;6268501;27;89143;-70
2023/05/16 02:53:06;;;;;;;3.83;2.92;;;22.80;84.70;;;;;;6266519;27;88467;-70
2023/05/16 02:56:09;;;;;;;2.95;2.75;;;22.80;84.70;;;;;;6258631;27;89089;-70
2023/05/16 02:59:12;;;;;;;3.22;2.92;;;22.80;84.70;;;;;;6269424;27;89053;-70
2023/05/16 03:02:14;;;;;;;3.30;2.97;;;22.80;84.70;;;;;;6285469;27;89253;-70
2023/05/16 03:05:17;;;;;;;3.47;3.17;;;22.80;84.70;;;;;;6291111;27;89588;-70
2023/05/16 03:08:19;;;;;;;4.28;3.05;;;22.80;84.70;;;;;;6279748;27;89291;-70
2023/05/16 03:11:21;;;;;;;3.50;3.20;;;22.80;84.70;;;;;;6256906;27;87947;-70
2023/05/16 03:14:25;;;;;;;3.67;3.38;;;22.80;84.70;;;;;;6265814;27;89228;-70
2023/05/16 03:17:27;;;;;;;3.90;3.50;;;22.80;84.70;;;;;;6289047;27;89079;-70
2023/05/16 03:20:29;;;;;;;4.25;3.78;;;22.70;84.60;;;;;;6280834;27;89127;-70
2023/05/16 03:23:31;;;;;;;3.80;3.40;;;22.70;84.60;;;;;;6273867;27;88230;-70
2023/05/16 03:26:33;;;;;;;3.67;3.38;;;22.70;84.60;;;;;;6281898;27;89383;-70
2023/05/16 03:29:36;;;;;;;4.15;3.70;;;22.70;84.60;;;;;;6291275;27;88115;-69
2023/05/16 03:32:38;;;;;;;4.10;3.70;;;22.70;84.60;;;;;;6289449;27;90963;-70
2023/05/16 03:35:40;;;;;;;4.20;3.80;;;22.70;84.50;;;;;;6295990;27;89234;-70
2023/05/16 03:38:42;;;;;;;4.68;3.88;;;22.70;84.50;;;;;;6279265;27;89088;-70
2023/05/16 03:41:45;;;;;;;5.38;4.35;;;22.70;84.50;;;;;;6274747;27;89062;-69
2023/05/16 03:44:48;;;;;;;5.10;4.38;;;22.70;84.40;;;;;;6267935;27;88933;-70
2023/05/16 03:47:50;;;;;;;4.30;3.90;;;22.70;84.40;;;;;;6284532;27;89314;-70
2023/05/16 03:50:52;;;;;;;4.30;3.90;;;22.70;84.40;;;;;;6294654;27;89047;-70
2023/05/16 03:53:54;;;;;;;4.57;4.18;;;22.80;84.40;;;;;;6275170;27;88665;-69
2023/05/16 03:56:56;;;;;;;4.20;3.80;;;22.80;84.40;;;;;;6279418;27;89120;-69
2023/05/16 03:59:59;;;;;;;4.50;4.10;;;22.70;84.40;;;;;;6279172;27;87987;-70
2023/05/16 04:03:01;;;;;;;4.05;3.65;;;22.80;84.30;;;;;;6286461;27;90049;-70
2023/05/16 04:06:04;;;;;;;4.15;3.75;;;22.80;84.30;;;;;;6265171;27;89056;-70
2023/05/16 04:09:06;;;;;;;4.10;3.70;;;22.80;84.40;;;;;;6292732;27;89010;-70
2023/05/16 04:12:08;;;;;;;4.78;4.05;;;22.90;84.40;;;;;;6285895;27;89013;-69
2023/05/16 04:15:12;;;;;;;4.72;4.07;;;22.90;84.20;;;;;;6275800;27;89091;-70
2023/05/16 04:18:14;;;;;;;4.20;3.80;;;22.80;84.10;;;;;;6269846;27;89068;-70
2023/05/16 04:21:16;;;;;;;4.25;3.88;;;22.90;84.20;;;;;;6271396;27;87905;-71
2023/05/16 04:24:18;;;;;;;4.53;4.13;;;22.90;84.10;;;;;;6283200;27;87199;-70
2023/05/16 04:27:20;;;;;;;4.53;4.13;;;22.90;84.00;;;;;;6280188;27;87986;-70
2023/05/16 04:30:23;;;;;;;4.70;4.30;;;22.90;84.00;;;;;;6296647;27;89087;-70
2023/05/16 04:33:26;;;;;;;4.50;4.10;;;22.90;84.00;;;;;;6280939;27;90557;-70
2023/05/16 04:36:28;;;;;;;4.55;4.15;;;22.90;84.00;;;;;;6297609;27;89064;-70
2023/05/16 04:39:31;;;;;;;4.82;4.40;;;22.90;83.90;;;;;;6281324;27;88949;-70
2023/05/16 04:42:33;;;;;;;4.72;4.30;;;22.90;84.50;;;;;;6267627;27;89102;-70
2023/05/16 04:45:36;;;;;;;4.63;4.20;;;22.90;84.00;;;;;;6278005;27;89065;-71
2023/05/16 04:48:38;;;;;;;4.75;4.35;;;22.90;83.90;;;;;;6282985;27;89172;-70
2023/05/16 04:51:40;;;;;;;4.50;4.10;;;22.90;83.90;;;;;;6293710;27;89016;-70
2023/05/16 04:54:43;;;;;;;4.55;4.15;;;23.00;84.00;;;;;;6271643;27;87369;-70
2023/05/16 04:57:45;;;;;;;4.78;4.38;;;22.90;83.80;;;;;;6265876;27;88111;-70
2023/05/16 05:00:48;;;;;;;4.75;4.10;;;22.90;83.90;;;;;;6270683;27;88798;-70
2023/05/16 05:03:51;;;;;;;5.07;4.50;;;22.90;83.90;;;;;;6256245;27;89985;-70
2023/05/16 05:06:53;;;;;;;5.05;4.30;;;22.90;84.70;;;;;;6268761;27;89137;-70
2023/05/16 05:09:55;;;;;;;4.50;4.10;;;22.90;85.60;;;;;;6263416;27;89116;-70
2023/05/16 05:12:57;;;;;;;4.50;4.10;;;22.90;85.00;;;;;;6275122;27;88873;-70
2023/05/16 05:16:03;;;;;;;4.53;4.10;;;23.00;84.90;;;;;;6280430;27;88980;-70
2023/05/16 05:19:05;;;;;;;5.25;4.22;;;22.90;84.80;;;;;;6278971;27;89134;-70
2023/05/16 05:22:07;;;;;;;5.65;4.18;;;23.00;84.90;;;;;;6289299;27;89172;-71
2023/05/16 05:25:10;;;;;;;4.60;4.18;;;23.00;84.80;;;;;;6283829;27;88780;-70
2023/05/16 05:28:12;;;;;;;6.38;4.55;;;23.00;84.90;;;;;;6261087;27;89114;-70
2023/05/16 05:31:15;;;;;;;4.63;4.20;;;23.10;84.90;;;;;;6271559;27;88130;-70
2023/05/16 05:34:17;;;;;;;5.18;4.22;;;23.10;84.90;;;;;;6268796;27;90281;-70
2023/05/16 05:37:19;;;;;;;6.53;4.70;;;23.10;84.70;;;;;;6275585;27;89392;-70
2023/05/16 05:40:21;;;;;;;5.97;4.25;;;23.10;84.70;;;;;;6275017;27;89049;-70
2023/05/16 05:43:23;;;;;;;5.53;4.40;;;23.10;84.60;;;;;;6294788;27;89142;-70
2023/05/16 05:46:27;;;;;;;4.55;4.15;;;23.10;84.50;;;;;;6277031;27;89062;-70
2023/05/16 05:49:29;;;;;;;4.65;4.18;;;23.10;84.50;;;;;;6267515;27;88995;-70
2023/05/16 05:52:31;;;;;;;5.82;4.30;;;23.10;84.50;;;;;;6275130;27;89242;-70
2023/05/16 05:55:33;;;;;;;6.30;4.82;;;23.10;84.40;;;;;;6272101;27;88666;-70
2023/05/16 05:58:36;;;;;;;4.97;4.30;;;23.10;84.40;;;;;;6256201;27;88278;-70
2023/05/16 06:01:39;;;;;;;4.60;4.20;;;23.10;84.40;;;;;;6282602;27;89440;-70
2023/05/16 06:04:42;;;;;;;5.75;4.50;;;23.10;84.30;;;;;;6271669;27;89996;-70
2023/05/16 06:07:44;;;;;;;6.05;4.60;;;23.10;84.30;;;;;;6274362;27;89097;-70
2023/05/16 06:10:46;;;;;;;4.50;4.05;;;23.10;84.30;;;;;;6278604;27;89248;-70
2023/05/16 06:13:48;;;;;;;5.15;4.10;;;23.10;84.30;;;;;;6268146;27;89099;-70
2023/05/16 06:16:51;;;;;;;4.40;4.00;;;23.10;84.40;;;;;;6267377;27;88819;-70
2023/05/16 06:19:53;;;;;;;4.57;4.13;;;23.20;84.30;;;;;;6272537;27;88929;-71
2023/05/16 06:22:55;;;;;;;4.90;4.30;;;23.10;84.30;;;;;;6260967;27;89028;-71
2023/05/16 06:25:57;;;;;;;4.70;4.13;;;23.20;84.40;;;;;;6269250;27;88341;-71
2023/05/16 06:29:00;;;;;;;5.00;4.40;;;23.20;84.40;;;;;;6261313;27;87995;-70
2023/05/16 06:32:03;;;;;;;5.55;4.50;;;23.20;84.30;;;;;;6283641;27;89077;-70
2023/05/16 06:35:06;;;;;;;4.65;4.25;;;23.20;84.60;;;;;;6285370;27;90018;-70
2023/05/16 06:38:08;;;;;;;4.57;4.18;;;23.20;84.80;;;;;;6280750;27;89082;-70
2023/05/16 06:41:10;;;;;;;5.10;4.60;;;23.20;85.10;;;;;;6253111;27;89058;-70
2023/05/16 06:44:12;;;;;;;5.20;4.20;;;23.20;85.50;;;;;;6270587;27;88019;-70
2023/05/16 06:47:15;;;;;;;4.70;4.20;;;23.20;85.80;;;;;;6256412;27;89040;-71
2023/05/16 06:50:17;;;;;;;5.10;4.32;;;23.20;86.10;;;;;;6267558;27;89213;-70
2023/05/16 06:53:19;;;;;;;5.30;4.13;;;23.20;86.60;;;;;;6270364;27;89240;-69
2023/05/16 06:56:22;;;;;;;4.95;4.10;;;23.20;86.90;;;;;;6282363;27;88797;-69
2023/05/16 06:59:24;;;;;;;5.68;4.10;;;23.20;87.30;;;;;;6282775;27;89124;-69
2023/05/16 07:02:28;;;;;;;4.65;4.15;;;23.20;87.60;;;;;;6286375;27;89039;-69
2023/05/16 07:05:30;;;;;;;6.30;4.55;;;23.30;87.90;;;;;;6289589;27;88600;-70
2023/05/16 07:08:32;;;;;;;4.68;4.10;;;23.30;88.10;;;;;;6282225;27;88287;-69
2023/05/16 07:11:34;;;;;;;4.88;4.10;;;23.20;88.20;;;;;;6283068;27;89090;-69
2023/05/16 07:14:36;;;;;;;4.82;3.92;;;23.20;88.30;;;;;;6287815;27;89025;-69
2023/05/16 07:17:39;;;;;;;5.00;4.30;;;23.20;88.50;;;;;;6286230;27;89101;-69
2023/05/16 07:20:41;;;;;;;6.60;4.32;;;23.30;88.70;;;;;;6286652;27;89122;-69
2023/05/16 07:23:43;;;;;;;5.53;4.10;;;23.30;88.90;;;;;;6268738;27;88971;-69
2023/05/16 07:26:45;;;;;;;4.82;4.20;;;23.30;88.90;;;;;;6288937;27;88310;-70
2023/05/16 07:29:47;;;;;;;4.85;4.10;;;23.30;89.00;;;;;;6273440;27;88484;-69
2023/05/16 07:32:50;;;;;;;4.47;4.07;;;23.30;89.10;;;;;;6290402;27;89186;-69
2023/05/16 07:35:52;;;;;;;5.53;4.00;;;23.30;89.10;;;;;;6284831;27;90756;-69
2023/05/16 07:38:54;;;;;;;5.13;4.30;;;23.30;89.30;;;;;;6294471;27;89110;-69
2023/05/16 07:41:57;;;;;;;4.30;3.90;;;23.30;89.30;;;;;;6294774;27;89137;-70
2023/05/16 07:44:59;;;;;;;5.00;4.00;;;23.30;89.30;;;;;;6275512;27;89016;-70
2023/05/16 07:48:02;;;;;;;7.60;4.57;;;23.30;89.30;;;;;;6280479;27;89065;-69
2023/05/16 07:51:04;;;;;;;5.20;4.00;;;23.30;89.30;;;;;;6282569;27;89115;-70
2023/05/16 07:54:06;;;;;;;4.43;4.03;;;23.30;89.40;;;;;;6268305;27;89123;-69
2023/05/16 07:57:08;;;;;;;5.28;4.00;;;23.30;89.40;;;;;;6289747;27;87260;-69
2023/05/16 08:00:11;;;;;;;4.63;3.92;;;23.30;89.60;;;;;;6278467;27;89393;-70
2023/05/16 08:03:15;;;;;;;4.82;3.78;;;23.30;89.70;;;;;;6288910;27;88172;-70
2023/05/16 08:06:17;;;;;;;5.88;3.95;;;23.30;90.00;;;;;;6278914;27;90031;-70
2023/05/16 08:09:19;;;;;;;5.95;4.00;;;23.40;90.00;;;;;;6268386;27;89066;-70
2023/05/16 08:12:21;;;;;;;5.07;4.13;;;23.40;89.80;;;;;;6282382;27;88061;-71
2023/05/16 08:15:23;;;;;;;4.55;3.85;;;23.40;89.80;;;;;;6280425;27;89106;-70
2023/05/16 08:18:27;;;;;;;4.90;4.10;;;23.40;89.80;;;;;;6260980;27;87660;-71
2023/05/16 08:21:29;;;;;;;5.85;3.90;;;23.40;89.80;;;;;;6272650;27;88001;-71
2023/05/16 08:24:31;;;;;;;4.40;4.00;;;23.40;89.70;;;;;;6280270;27;89034;-70
2023/05/16 08:27:33;;;;;;;5.07;3.83;;;23.40;89.70;;;;;;6270900;27;88364;-71
2023/05/16 08:30:35;;;;;;;5.72;3.97;;;23.40;89.70;;;;;;6285896;27;89057;-70
2023/05/16 08:33:38;;;;;;;3.97;3.58;;;23.40;89.60;;;;;;6281354;27;89094;-70
2023/05/16 08:36:40;;;;;;;5.40;3.92;;;23.40;89.60;;;;;;6286195;27;90058;-70
2023/05/16 08:39:42;;;;;;;4.80;3.55;;;23.40;89.70;;;;;;6283838;27;89169;-69
2023/05/16 08:42:44;;;;;;;4.30;3.90;;;23.40;89.20;;;;;;6275707;27;88935;-70
2023/05/16 08:45:46;;;;;;;5.65;3.42;;;23.40;89.50;;;;;;6269369;27;89091;-71
2023/05/16 08:48:53;;;;;;;4.28;3.65;;;23.40;89.80;;;;;;6282262;27;89068;-70
2023/05/16 08:51:58;;;;;;;5.28;4.00;;;23.40;90.00;;;;;;6272078;27;89218;-69
2023/05/16 08:55:06;;;;;;;5.28;3.83;;;23.40;90.00;;;;;;6287131;27;89272;-70
2023/05/16 08:58:09;;;;;;;6.25;3.90;;;23.40;90.10;;;;;;6272041;27;88522;-70
2023/05/16 09:01:11;;;;;;;4.00;3.45;;;23.40;90.20;;;;;;6281062;27;89393;-70
2023/05/16 09:04:15;;;;;;;6.00;3.88;;;23.40;90.30;;;;;;6266741;27;89004;-71
2023/05/16 09:07:18;;;;;;;5.57;3.55;;;23.40;90.30;;;;;;6280882;27;90031;-69
2023/05/16 09:10:20;;;;;;;5.55;3.58;;;23.40;90.40;;;;;;6269061;27;88108;-69
2023/05/16 09:13:22;;;;;;;4.85;3.35;;;23.40;90.20;;;;;;6282034;27;89014;-69
2023/05/16 09:16:24;;;;;;;5.25;3.70;;;23.50;90.30;;;;;;6284759;27;89064;-69
2023/05/16 09:19:32;;;;;;;5.03;3.85;;;23.50;90.40;;;;;;6269660;27;88361;-69
2023/05/16 09:22:34;;;;;;;5.93;3.30;;;23.50;90.30;;;;;;6273824;27;89043;-69
2023/05/16 09:25:36;;;;;;;4.68;3.33;;;23.50;90.20;;;;;;6272553;27;88948;-69
2023/05/16 09:28:38;;;;;;;5.70;3.53;;;23.50;90.20;;;;;;6262813;27;87208;-69
2023/05/16 09:31:41;;;;;;;3.83;3.28;;;23.50;90.20;;;;;;6289446;27;89020;-69
2023/05/16 09:34:47;;;;;;;4.47;3.53;;;23.50;90.20;;;;;;6282682;27;89359;-69
2023/05/16 09:37:51;;;;;;;5.50;3.42;;;23.50;90.20;;;;;;6279805;27;90048;-69
2023/05/16 09:40:54;;;;;;;5.10;3.22;;;23.50;90.10;;;;;;6259746;27;89192;-69
2023/05/16 09:43:56;;;;;;;4.07;3.22;;;23.60;90.10;;;;;;6293161;27;88979;-69
2023/05/16 09:46:58;;;;;;;5.13;3.35;;;23.50;90.00;;;;;;6284591;27;88965;-70
2023/05/16 09:50:01;;;;;;;5.07;3.13;;;23.50;90.00;;;;;;6276305;27;89139;-69
2023/05/16 09:53:04;;;;;;;5.20;3.70;;;23.60;90.00;;;;;;6286112;27;89047;-69
2023/05/16 09:56:07;;;;;;;5.53;3.92;;;23.50;90.00;;;;;;6274657;27;89079;-68
2023/05/16 09:59:11;;;;;;;7.88;3.60;;;23.50;90.00;;;;;;6262681;27;88447;-70
2023/05/16 10:02:13;;;;;;;7.40;3.95;;;23.60;90.10;;;;;;6265394;27;89144;-68
2023/05/16 10:05:17;;;;;;;6.22;3.65;;;23.50;90.70;;;;;;6264828;27;89098;-69
2023/05/16 10:08:21;;;;;;;6.63;3.38;;;23.60;91.20;;;;;;6276462;27;90062;-69
2023/05/16 10:11:23;;;;;;;8.20;3.40;;;23.60;91.00;;;;;;6284844;27;89064;-69
2023/05/16 10:14:26;;;;;;;5.13;3.20;;;23.60;90.90;;;;;;6261528;27;88978;-69
2023/05/16 10:17:32;;;;;;;4.90;3.20;;;23.60;91.20;;;;;;6270180;27;89057;-69
2023/05/16 10:20:35;;;;;;;5.72;3.35;;;23.60;91.10;;;;;;6266758;27;89021;-70
2023/05/16 10:23:41;;;;;;;4.60;3.33;;;23.60;91.00;;;;;;6287374;27;89464;-70
2023/05/16 10:26:43;;;;;;;4.88;3.10;;;23.60;90.80;;;;;;6279336;27;89654;-70
2023/05/16 10:29:45;;;;;;;5.88;3.50;;;23.60;90.70;;;;;;6276464;27;88354;-70
2023/05/16 10:32:50;;;;;;;7.05;3.70;;;23.60;90.60;;;;;;6277956;27;89764;-69
2023/05/16 10:35:53;;;;;;;4.10;3.10;;;23.60;90.60;;;;;;6262819;27;89562;-70
2023/05/16 10:38:56;;;;;;;5.03;3.60;;;23.60;90.70;;;;;;6260610;27;89004;-68
2023/05/16 10:41:59;;;;;;;5.32;3.38;;;23.70;91.30;;;;;;6272636;27;89171;-68
2023/05/16 10:45:15;;;;;;;5.43;3.20;;;23.70;90.70;;;;;;6258573;27;88318;-68
2023/05/16 10:48:27;;;;;;;6.90;3.53;;;23.70;90.60;;;;;;6279818;27;88778;-69
2023/05/16 10:51:39;;;;;;;4.60;3.30;;;23.70;90.60;;;;;;6271315;27;89058;-69
2023/05/16 10:54:42;;;;;;;4.00;3.50;;;23.70;90.40;;;;;;6260084;27;89133;-69
2023/05/16 10:57:45;;;;;;;6.63;3.65;;;23.70;90.00;;;;;;6280362;27;89056;-69
2023/05/16 11:00:48;;;;;;;4.63;3.83;;;23.70;89.20;;;;;;6275704;27;88345;-68
2023/05/16 11:04:05;;;;;;;4.20;3.80;;;23.70;88.10;;;;;;6272855;27;89534;-69
2023/05/16 11:07:10;;;;;;;3.72;3.10;;;23.70;87.10;;;;;;6268326;27;89084;-68
2023/05/16 11:10:16;;;;;;;5.00;3.10;;;23.70;86.90;;;;;;6283003;27;90042;-69
2023/05/16 11:13:24;;;;;;;3.90;3.05;;;23.70;87.10;;;;;;6280986;27;87986;-69
2023/05/16 11:16:30;;;;;;;4.78;3.40;;;23.60;87.10;;;;;;6254840;27;89408;-68
2023/05/16 11:19:35;;;;;;;3.30;3.00;;;23.70;87.10;;;;;;6260152;27;89139;-69
2023/05/16 11:22:40;;;;;;;3.03;2.72;;;23.70;87.10;;;;;;6280379;27;88998;-69
2023/05/16 11:25:44;;;;;;;3.50;3.00;;;23.60;87.10;;;;;;6275490;27;89021;-69
2023/05/16 11:28:49;;;;;;;3.50;3.00;;;23.70;87.20;;;;;;6276186;27;89245;-68
2023/05/16 11:31:53;;;;;;;3.33;2.78;;;23.70;87.10;;;;;;6280124;27;88293;-69
2023/05/16 11:34:55;;;;;;;3.58;2.80;;;23.70;87.20;;;;;;6265762;27;89050;-69
2023/05/16 11:37:58;;;;;;;2.90;2.55;;;23.70;88.10;;;;;;6288197;27;89997;-68
2023/05/16 11:41:05;;;;;;;4.22;3.10;;;23.70;87.20;;;;;;6276404;27;90016;-68
2023/05/16 11:44:07;;;;;;;3.20;2.85;;;23.70;87.30;;;;;;6274911;27;89392;-68
2023/05/16 11:47:09;;;;;;;3.13;2.83;;;23.70;87.40;;;;;;6263175;27;89153;-68
2023/05/16 11:50:13;;;;;;;2.97;2.67;;;23.60;87.20;;;;;;6265820;27;89087;-69
2023/05/16 11:53:16;;;;;;;3.00;2.70;;;23.70;87.30;;;;;;6275590;27;87987;-69
2023/05/16 11:56:20;;;;;;;3.28;2.60;;;23.70;87.40;;;;;;6279536;27;89088;-69
2023/05/16 11:59:22;;;;;;;3.08;2.67;;;23.70;87.40;;;;;;6278349;27;89191;-68
2023/05/16 12:02:24;;;;;;;3.17;2.70;;;23.70;87.40;;;;;;6274669;27;88318;-69
2023/05/16 12:05:27;;;;;;;3.42;2.70;;;23.70;87.40;;;;;;6265774;27;89097;-68
2023/05/16 12:08:31;;;;;;;2.80;2.50;;;23.70;87.40;;;;;;6259609;27;89082;-69
2023/05/16 12:11:33;;;;;;;2.88;2.60;;;23.70;87.40;;;;;;6272767;27;90031;-68
2023/05/16 12:14:35;;;;;;;2.90;2.60;;;23.70;87.40;;;;;;6279258;27;89051;-68
2023/05/16 12:17:39;;;;;;;4.15;2.83;;;23.60;87.30;;;;;;6277499;27;89365;-69
2023/05/16 12:20:41;;;;;;;3.22;2.65;;;23.60;87.40;;;;;;6272558;27;89163;-69
2023/05/16 12:23:45;;;;;;;3.22;2.40;;;23.70;87.90;;;;;;6281719;27;89344;-69
2023/05/16 12:26:47;;;;;;;2.78;2.40;;;23.70;88.70;;;;;;6275919;27;89175;-69
2023/05/16 12:29:49;;;;;;;3.47;2.65;;;23.60;89.10;;;;;;6273154;27;89134;-69
2023/05/16 12:32:58;;;;;;;3.35;2.60;;;23.60;89.40;;;;;;6265571;27;88400;-69
2023/05/16 12:36:03;;;;;;;2.70;2.50;;;23.60;89.90;;;;;;6275853;27;89073;-70
2023/05/16 12:39:06;;;;;;;3.50;2.70;;;23.60;90.00;;;;;;6277688;27;89014;-69
2023/05/16 12:42:12;;;;;;;3.30;2.70;;;23.60;90.20;;;;;;6276584;27;91329;-69
2023/05/16 12:45:17;;;;;;;2.80;2.60;;;23.60;90.30;;;;;;6280427;27;88972;-69
2023/05/16 12:48:19;;;;;;;2.58;2.35;;;23.60;90.30;;;;;;6280442;27;89145;-69
2023/05/16 12:51:21;;;;;;;3.15;2.55;;;23.60;90.30;;;;;;6282113;27;87979;-69
2023/05/16 12:54:25;;;;;;;4.15;2.70;;;23.60;90.50;;;;;;6271057;27;89194;-68
2023/05/16 12:57:27;;;;;;;5.43;2.80;;;23.60;90.70;;;;;;6262246;27;89038;-69
2023/05/16 13:00:30;;;;;;;3.55;2.90;;;23.60;90.50;;;;;;6261642;27;88973;-69
2023/05/16 13:03:32;;;;;;;3.63;2.47;;;23.60;90.30;;;;;;6269119;27;87952;-69
2023/05/16 13:06:36;;;;;;;4.07;2.80;;;23.60;90.20;;;;;;6261383;27;89276;-69
2023/05/16 13:09:40;;;;;;;2.90;2.67;;;23.60;90.30;;;;;;6275188;27;89111;-69
2023/05/16 13:12:42;;;;;;;2.67;2.45;;;23.60;90.40;;;;;;6264016;27;90036;-69
2023/05/16 13:15:44;;;;;;;2.53;2.33;;;23.60;90.60;;;;;;6279469;27;89073;-68
2023/05/16 13:18:46;;;;;;;3.70;2.53;;;23.60;90.60;;;;;;6277004;27;89122;-68
2023/05/16 13:21:48;;;;;;;2.70;2.50;;;23.50;90.60;;;;;;6257509;27;89442;-69
2023/05/16 13:24:52;;;;;;;2.72;2.47;;;23.60;90.70;;;;;;6267717;27;89113;-69
2023/05/16 13:27:54;;;;;;;4.00;2.80;;;23.60;90.70;;;;;;6270331;27;87694;-69
2023/05/16 13:30:56;;;;;;;3.40;2.63;;;23.60;90.70;;;;;;6293948;27;89140;-69
2023/05/16 13:33:58;;;;;;;3.65;2.90;;;23.60;90.80;;;;;;6279911;27;88220;-69
2023/05/16 13:37:00;;;;;;;3.85;2.38;;;23.60;90.70;;;;;;6293458;27;89074;-69
2023/05/16 13:40:04;;;;;;;2.90;2.50;;;23.60;90.70;;;;;;6276589;27;88611;-69
2023/05/16 13:43:06;;;;;;;3.25;2.88;;;23.60;90.70;;;;;;6259759;27;90067;-69
2023/05/16 13:46:08;;;;;;;2.60;2.40;;;23.60;90.60;;;;;;6278237;27;89137;-68
2023/05/16 13:49:10;;;;;;;2.50;2.30;;;23.60;90.60;;;;;;6275564;27;87929;-69
2023/05/16 13:52:12;;;;;;;2.80;2.50;;;23.60;90.60;;;;;;6274894;27;90241;-69
2023/05/16 13:55:15;;;;;;;2.85;2.42;;;23.60;90.60;;;;;;6268865;27;89015;-69
2023/05/16 13:58:18;;;;;;;2.65;2.42;;;23.60;90.60;;;;;;6268711;27;89334;-69
2023/05/16 14:01:20;;;;;;;2.60;2.40;;;23.60;90.60;;;;;;6261933;27;89041;-69
2023/05/16 14:04:22;;;;;;;2.60;2.40;;;23.70;90.60;;;;;;6274625;27;88919;-70
2023/05/16 14:07:24;;;;;;;3.95;2.50;;;23.60;90.50;;;;;;6277165;27;89125;-69
2023/05/16 14:10:27;;;;;;;2.78;2.58;;;23.60;90.50;;;;;;6281955;27;89164;-70
2023/05/16 14:13:29;;;;;;;3.17;2.50;;;23.60;90.50;;;;;;6274670;27;89997;-69
2023/05/16 14:16:32;;;;;;;2.60;2.40;;;23.60;90.50;;;;;;6271013;27;89197;-69
2023/05/16 14:19:35;;;;;;;2.65;2.45;;;23.60;90.50;;;;;;6278069;27;89502;-69
2023/05/16 14:22:38;;;;;;;2.58;2.28;;;23.60;90.50;;;;;;6289612;27;88997;-69
2023/05/16 14:25:41;;;;;;;2.80;2.50;;;23.70;90.50;;;;;;6261777;27;89128;-69
2023/05/16 14:28:43;;;;;;;2.53;2.30;;;23.60;90.50;;;;;;6263992;27;89651;-69
2023/05/16 14:31:45;;;;;;;2.88;2.40;;;23.60;90.50;;;;;;6284167;27;89296;-69
2023/05/16 14:34:47;;;;;;;2.95;2.63;;;23.70;90.50;;;;;;6279561;27;88462;-70
2023/05/16 14:37:50;;;;;;;2.80;2.58;;;23.70;90.50;;;;;;6286910;27;89019;-69
2023/05/16 14:40:53;;;;;;;3.45;2.30;;;23.60;90.40;;;;;;6280172;27;89118;-69
2023/05/16 14:43:56;;;;;;;2.60;2.40;;;23.60;90.40;;;;;;6271233;27;89882;-70
2023/05/16 14:46:58;;;;;;;2.75;2.40;;;23.60;90.40;;;;;;6268347;27;89084;-69
2023/05/16 14:50:00;;;;;;;3.25;2.35;;;23.60;90.40;;;;;;6299351;27;87967;-70
2023/05/16 14:53:03;;;;;;;3.05;2.40;;;23.60;90.40;;;;;;6287395;27;89295;-67
2023/05/16 14:56:06;;;;;;;2.70;2.47;;;23.60;90.40;;;;;;6265313;27;87617;-67
2023/05/16 14:59:08;;;;;;;2.55;2.20;;;23.70;90.30;;;;;;6267151;27;89260;-67
2023/05/16 15:02:10;;;;;;;3.00;2.10;;;23.70;90.40;;;;;;6279553;27;89729;-67
2023/05/16 15:05:12;;;;;;;2.63;2.40;;;23.60;90.40;;;;;;6273113;27;88409;-68
2023/05/16 15:08:14;;;;;;;2.67;2.45;;;23.60;90.40;;;;;;6262763;27;89297;-67
2023/05/16 15:11:18;;;;;;;2.70;2.50;;;23.60;90.40;;;;;;6273314;27;89101;-68
2023/05/16 15:14:20;;;;;;;2.55;2.35;;;23.60;90.40;;;;;;6262532;27;90044;-67
2023/05/16 15:17:22;;;;;;;3.05;2.58;;;23.60;90.40;;;;;;6260782;27;87990;-67
2023/05/16 15:20:24;;;;;;;3.38;2.38;;;23.60;90.40;;;;;;6265695;27;89139;-68
2023/05/16 15:23:27;;;;;;;2.60;2.40;;;23.60;90.40;;;;;;6281309;27;88897;-67
2023/05/16 15:26:31;;;;;;;2.70;2.50;;;23.60;90.30;;;;;;6282341;27;89045;-67
2023/05/16 15:29:33;;;;;;;2.42;2.22;;;23.60;90.30;;;;;;6272492;27;89129;-67
2023/05/16 15:32:35;;;;;;;2.92;2.42;;;23.60;90.30;;;;;;6276625;27;89047;-67
2023/05/16 15:35:37;;;;;;;2.58;2.38;;;23.60;90.30;;;;;;6277583;27;88381;-67
2023/05/16 15:38:43;;;;;;;2.65;2.45;;;23.60;90.30;;;;;;6290826;27;89142;-67
2023/05/16 15:41:46;;;;;;;2.92;2.63;;;23.60;90.30;;;;;;6266154;27;89482;-67
2023/05/16 15:44:48;;;;;;;2.53;2.30;;;23.60;90.20;;;;;;6240591;27;88862;-66
2023/05/16 15:47:50;;;;;;;2.47;2.28;;;23.60;90.20;;;;;;6233941;27;88914;-67
2023/05/16 15:50:52;;;;;;;2.38;2.17;;;23.60;90.30;;;;;;6251162;27;89175;-67
2023/05/16 15:53:54;;;;;;;3.50;2.60;;;23.60;90.40;;;;;;6260973;27;89066;-66